Time;durP1;ratioP1;P1;durP2;ratioP2;P2;SDS_P1;SDS_P2;PMS_P1;PMS_P2;Temp;Humidity;BMP_temperature;BMP_pressure;BME280_temperature;BME280_humidity;BME280_pressure;Samples;Min_cycle;Max_cycle;Signal;HPM_P1;HPM_P2
2023/06/17 00:01:21;;;;;;;6.50;4.50;;;22.40;61.40;;;;;;10433640;28;20017;-67
2023/06/17 00:06:21;;;;;;;7.68;4.82;;;22.30;61.40;;;;;;10451687;28;20021;-67
2023/06/17 00:11:22;;;;;;;5.68;4.53;;;22.30;61.70;;;;;;10441050;28;20025;-67
2023/06/17 00:16:23;;;;;;;5.72;4.63;;;22.30;61.70;;;;;;10453052;28;20036;-67
2023/06/17 00:21:23;;;;;;;5.70;4.43;;;22.30;61.90;;;;;;10432182;28;20390;-67
2023/06/17 00:26:24;;;;;;;8.20;5.00;;;22.20;62.00;;;;;;10449199;28;20090;-67
2023/06/17 00:31:25;;;;;;;7.57;4.57;;;22.30;62.10;;;;;;10441319;28;20022;-67
2023/06/17 00:36:26;;;;;;;6.82;4.63;;;22.20;62.30;;;;;;10454861;28;20021;-67
2023/06/17 00:41:26;;;;;;;6.15;4.93;;;22.10;62.30;;;;;;10445807;28;20058;-67
2023/06/17 00:46:37;;;;;;;5.53;4.47;;;22.10;62.40;;;;;;10433354;28;20029;-67
2023/06/17 00:51:38;;;;;;;6.75;5.05;;;22.00;62.80;;;;;;10440839;28;20029;-67
2023/06/17 00:56:40;;;;;;;6.43;4.70;;;22.00;62.70;;;;;;10450892;28;20021;-67
2023/06/17 01:01:41;;;;;;;6.93;4.90;;;22.00;62.80;;;;;;10451367;28;20117;-67
2023/06/17 01:06:59;;;;;;;6.15;4.88;;;22.00;63.00;;;;;;10440291;28;20036;-67
2023/06/17 01:12:02;;;;;;;8.68;5.10;;;22.00;63.30;;;;;;10449179;28;20077;-67
2023/06/17 01:17:04;;;;;;;8.82;4.95;;;21.90;63.20;;;;;;10439995;28;20040;-68
2023/06/17 01:22:08;;;;;;;6.95;5.03;;;21.90;63.40;;;;;;10439452;28;20029;-67
2023/06/17 01:27:09;;;;;;;5.85;4.82;;;21.90;63.50;;;;;;10447108;28;20094;-67
2023/06/17 01:32:10;;;;;;;6.07;4.97;;;21.80;63.60;;;;;;10445896;28;20108;-67
2023/06/17 01:37:11;;;;;;;7.07;4.80;;;21.90;63.70;;;;;;10438672;28;20025;-67
2023/06/17 01:42:34;;;;;;;6.65;4.93;;;21.80;63.80;;;;;;10443958;28;20024;-67
2023/06/17 01:47:34;;;;;;;6.30;4.40;;;21.80;64.20;;;;;;10443682;28;20280;-66
2023/06/17 01:52:35;;;;;;;7.25;4.93;;;21.70;63.90;;;;;;10441837;28;20021;-66
2023/06/17 01:57:36;;;;;;;6.93;4.95;;;21.70;64.00;;;;;;10439620;28;20029;-66
2023/06/17 02:02:36;;;;;;;6.15;4.65;;;21.70;64.10;;;;;;10445682;28;20420;-66
2023/06/17 02:07:38;;;;;;;8.95;4.93;;;21.70;64.30;;;;;;10450277;28;20029;-66
2023/06/17 02:12:38;;;;;;;6.47;4.43;;;21.60;64.30;;;;;;10435808;28;20448;-66
2023/06/17 02:17:39;;;;;;;5.93;4.63;;;21.60;64.40;;;;;;10443428;28;20515;-66
2023/06/17 02:22:39;;;;;;;7.43;5.07;;;21.60;64.60;;;;;;10444649;28;20396;-67
2023/06/17 02:27:40;;;;;;;6.15;4.47;;;21.50;64.60;;;;;;10443035;28;20438;-66
2023/06/17 02:32:41;;;;;;;7.22;5.30;;;21.50;64.70;;;;;;10438034;28;20056;-67
2023/06/17 02:37:43;;;;;;;5.47;4.30;;;21.50;64.80;;;;;;10432859;28;20120;-66
2023/06/17 02:42:44;;;;;;;6.85;4.20;;;21.50;64.90;;;;;;10451597;28;20416;-66
2023/06/17 02:47:45;;;;;;;5.70;4.25;;;21.40;64.90;;;;;;10451430;28;20039;-66
2023/06/17 02:52:46;;;;;;;6.10;4.05;;;21.40;65.00;;;;;;10451551;28;20025;-67
2023/06/17 02:57:47;;;;;;;5.18;4.05;;;21.40;65.10;;;;;;10456926;28;20020;-66
2023/06/17 03:02:48;;;;;;;5.20;3.97;;;21.30;65.10;;;;;;10447726;28;20028;-67
2023/06/17 03:07:49;;;;;;;7.43;4.20;;;21.30;65.10;;;;;;10444908;28;20063;-67
2023/06/17 03:12:49;;;;;;;4.57;3.70;;;21.30;65.20;;;;;;10459103;28;20146;-67
2023/06/17 03:17:50;;;;;;;4.45;3.90;;;21.30;65.30;;;;;;10451357;28;20032;-66
2023/06/17 03:22:51;;;;;;;9.02;4.05;;;21.20;65.30;;;;;;10451861;28;20013;-67
2023/06/17 03:27:52;;;;;;;4.30;3.85;;;21.20;65.40;;;;;;10447752;28;20029;-66
2023/06/17 03:32:53;;;;;;;5.00;3.85;;;21.20;65.40;;;;;;10441786;28;20055;-66
2023/06/17 03:37:54;;;;;;;5.63;3.85;;;21.10;65.40;;;;;;10450112;28;20118;-67
2023/06/17 03:42:54;;;;;;;4.13;3.53;;;21.10;65.50;;;;;;10449723;28;20024;-67
2023/06/17 03:47:55;;;;;;;4.90;3.60;;;21.10;65.50;;;;;;10449301;28;20062;-66
2023/06/17 03:52:56;;;;;;;5.65;3.75;;;21.10;65.60;;;;;;10450605;28;20031;-68
2023/06/17 03:57:57;;;;;;;3.67;3.08;;;21.00;65.60;;;;;;10453080;28;20078;-66
2023/06/17 04:02:57;;;;;;;4.80;3.22;;;21.00;65.70;;;;;;10454228;28;20021;-66
2023/06/17 04:08:02;;;;;;;3.42;3.10;;;20.90;65.70;;;;;;10453983;28;20028;-66
2023/06/17 04:13:03;;;;;;;3.55;3.00;;;20.90;65.70;;;;;;10444114;28;20013;-66
2023/06/17 04:18:04;;;;;;;3.40;3.10;;;20.90;65.80;;;;;;10444462;28;20021;-66
2023/06/17 04:23:04;;;;;;;3.20;2.70;;;20.90;65.90;;;;;;10441765;28;20369;-66
2023/06/17 04:28:07;;;;;;;5.05;3.35;;;20.80;65.80;;;;;;10453474;28;20009;-66
2023/06/17 04:33:11;;;;;;;3.45;2.65;;;20.90;65.90;;;;;;10457196;28;20009;-66
2023/06/17 04:38:12;;;;;;;3.58;3.00;;;20.80;65.90;;;;;;10440270;28;20024;-66
2023/06/17 04:43:12;;;;;;;3.90;3.05;;;20.90;66.00;;;;;;10446256;28;20021;-66
2023/06/17 04:48:14;;;;;;;3.50;3.10;;;20.80;66.00;;;;;;10449548;28;20114;-66
2023/06/17 04:53:15;;;;;;;3.38;2.95;;;20.80;66.00;;;;;;10449891;28;20044;-66
2023/06/17 04:58:15;;;;;;;4.38;2.78;;;20.80;66.10;;;;;;10452101;28;20097;-65
2023/06/17 05:03:16;;;;;;;3.10;2.75;;;20.80;66.10;;;;;;10453622;28;20049;-65
2023/06/17 05:08:16;;;;;;;2.97;2.67;;;20.80;66.10;;;;;;10455381;28;20025;-67
2023/06/17 05:13:17;;;;;;;3.25;2.95;;;20.80;66.10;;;;;;10442461;28;20025;-66
2023/06/17 05:18:18;;;;;;;3.53;2.83;;;20.80;66.20;;;;;;10441074;28;20496;-66
2023/06/17 05:23:18;;;;;;;3.88;3.47;;;20.80;66.90;;;;;;10448803;28;20435;-66
2023/06/17 05:28:19;;;;;;;3.63;3.08;;;20.80;66.40;;;;;;10442737;28;20116;-66
2023/06/17 05:33:19;;;;;;;3.97;3.22;;;20.80;66.50;;;;;;10438461;28;20028;-66
2023/06/17 05:38:20;;;;;;;7.45;3.67;;;20.80;66.70;;;;;;10445098;28;20025;-66
2023/06/17 05:43:21;;;;;;;4.88;3.28;;;20.90;66.70;;;;;;10439260;28;20030;-66
2023/06/17 05:48:21;;;;;;;5.70;3.60;;;20.80;66.80;;;;;;10439946;28;20308;-66
2023/06/17 05:53:22;;;;;;;5.65;3.70;;;20.80;66.90;;;;;;10435033;28;20025;-66
2023/06/17 05:58:23;;;;;;;5.30;3.75;;;20.80;67.00;;;;;;10442547;28;20021;-66
2023/06/17 06:03:23;;;;;;;6.80;4.10;;;20.80;67.00;;;;;;10428395;28;20040;-67
2023/06/17 06:08:25;;;;;;;4.90;4.05;;;20.80;67.10;;;;;;10436846;28;20028;-68
2023/06/17 06:13:25;;;;;;;7.00;4.30;;;20.80;67.20;;;;;;10441688;28;20040;-66
2023/06/17 06:18:28;;;;;;;6.07;4.18;;;20.80;67.30;;;;;;10443509;28;20438;-66
2023/06/17 06:23:28;;;;;;;7.45;4.47;;;20.80;67.40;;;;;;10441729;28;20056;-66
2023/06/17 06:28:29;;;;;;;5.97;4.10;;;20.80;67.50;;;;;;10449351;28;20100;-66
2023/06/17 06:33:29;;;;;;;6.95;4.90;;;20.80;67.50;;;;;;10437736;28;20152;-65
2023/06/17 06:38:30;;;;;;;6.07;4.50;;;20.80;67.50;;;;;;10447108;28;20100;-66
2023/06/17 06:43:31;;;;;;;14.00;6.20;;;20.80;67.60;;;;;;10439376;28;20028;-68
2023/06/17 06:48:31;;;;;;;23.92;11.40;;;20.80;68.10;;;;;;10446616;28;20025;-68
2023/06/17 06:53:32;;;;;;;19.88;11.50;;;20.60;71.20;;;;;;10442356;28;20032;-68
2023/06/17 06:58:33;;;;;;;19.90;10.30;;;20.30;73.60;;;;;;10442303;28;20028;-68
2023/06/17 07:03:33;;;;;;;17.85;10.65;;;20.00;75.50;;;;;;10443020;28;20028;-68
2023/06/17 07:08:34;;;;;;;20.98;10.85;;;19.90;76.10;;;;;;10448649;28;20489;-68
2023/06/17 07:13:35;;;;;;;15.45;9.65;;;19.90;76.80;;;;;;10445988;28;20026;-68
2023/06/17 07:18:36;;;;;;;19.48;11.05;;;19.90;77.40;;;;;;10447097;28;20029;-68
2023/06/17 07:23:37;;;;;;;19.85;10.82;;;19.90;77.70;;;;;;10448398;28;20055;-67
2023/06/17 07:28:37;;;;;;;17.60;10.13;;;19.90;77.80;;;;;;10448968;28;20025;-67
2023/06/17 07:33:39;;;;;;;21.08;10.43;;;20.00;77.80;;;;;;10445963;28;20033;-66
2023/06/17 07:38:40;;;;;;;18.88;11.30;;;20.00;78.10;;;;;;10447387;28;20048;-66
2023/06/17 07:43:40;;;;;;;21.15;10.90;;;19.90;79.00;;;;;;10439081;28;20462;-67
2023/06/17 07:48:41;;;;;;;16.35;9.85;;;19.70;79.80;;;;;;10439035;28;20511;-66
2023/06/17 07:53:44;;;;;;;15.85;10.38;;;19.60;79.80;;;;;;10443017;28;20515;-69
2023/06/17 07:58:45;;;;;;;16.98;9.70;;;19.60;81.00;;;;;;10451400;28;20223;-68
2023/06/17 08:03:46;;;;;;;17.02;10.02;;;19.70;80.20;;;;;;10453771;28;20029;-68
2023/06/17 08:08:47;;;;;;;14.20;9.35;;;19.90;80.20;;;;;;10454230;28;20044;-68
2023/06/17 08:13:47;;;;;;;15.20;9.25;;;19.90;80.50;;;;;;10454181;28;20021;-68
2023/06/17 08:18:48;;;;;;;17.52;9.90;;;20.00;80.00;;;;;;10444526;28;20374;-68
2023/06/17 08:23:51;;;;;;;17.10;9.80;;;20.00;80.90;;;;;;10458358;28;20039;-68
2023/06/17 08:28:52;;;;;;;17.92;9.65;;;20.10;80.60;;;;;;10454257;28;20100;-67
2023/06/17 08:33:52;;;;;;;17.45;9.93;;;20.10;80.50;;;;;;10460573;28;20032;-68
2023/06/17 08:38:53;;;;;;;19.90;10.50;;;20.20;80.10;;;;;;10466220;28;20126;-68
2023/06/17 08:44:00;;;;;;;13.70;9.60;;;20.40;80.60;;;;;;10444985;28;20058;-68
2023/06/17 08:49:02;;;;;;;14.75;9.45;;;20.30;81.00;;;;;;10452385;28;20036;-68
2023/06/17 08:54:03;;;;;;;14.70;8.63;;;20.40;80.90;;;;;;10458259;28;20055;-70
2023/06/17 08:59:04;;;;;;;14.25;9.52;;;20.30;80.90;;;;;;10466743;28;20100;-69
2023/06/17 09:04:05;;;;;;;17.05;10.38;;;20.50;80.80;;;;;;10457235;28;20032;-72
2023/06/17 09:09:06;;;;;;;15.45;9.35;;;20.60;80.90;;;;;;10442237;28;20554;-73
2023/06/17 09:14:06;;;;;;;15.13;9.38;;;20.70;81.00;;;;;;10454801;28;20552;-70
2023/06/17 09:19:13;;;;;;;16.35;8.25;;;20.90;81.00;;;;;;10455565;28;20025;-70
2023/06/17 09:24:15;;;;;;;15.55;8.80;;;20.80;80.90;;;;;;10455847;28;20501;-70
2023/06/17 09:29:16;;;;;;;12.82;8.02;;;21.00;80.70;;;;;;10451199;28;20043;-70
2023/06/17 09:34:17;;;;;;;12.10;7.90;;;21.10;80.60;;;;;;10460139;28;20031;-70
2023/06/17 09:39:18;;;;;;;11.82;7.05;;;21.30;80.50;;;;;;10452031;28;20662;-71
2023/06/17 09:44:20;;;;;;;17.20;7.82;;;21.40;80.10;;;;;;10455150;28;20021;-70
2023/06/17 09:49:23;;;;;;;11.30;7.38;;;21.50;80.20;;;;;;10452231;28;20032;-71
2023/06/17 09:54:24;;;;;;;11.40;7.13;;;21.50;80.10;;;;;;10459885;28;20017;-71
2023/06/17 09:59:26;;;;;;;12.70;7.10;;;21.60;79.90;;;;;;10453782;28;20018;-74
2023/06/17 10:04:27;;;;;;;8.98;6.63;;;21.80;79.90;;;;;;10433343;28;20025;-70
2023/06/17 10:09:28;;;;;;;11.80;6.72;;;21.90;79.40;;;;;;10430298;28;20031;-70
2023/06/17 10:14:32;;;;;;;12.15;7.97;;;22.00;79.30;;;;;;10441354;28;20291;-68
2023/06/17 10:19:36;;;;;;;12.52;8.13;;;22.10;79.60;;;;;;10435687;28;20021;-69
2023/06/17 10:24:37;;;;;;;13.23;7.05;;;22.20;78.90;;;;;;10440425;28;20091;-69
2023/06/17 10:29:44;;;;;;;10.50;6.82;;;22.30;79.00;;;;;;10426467;28;20060;-68
2023/06/17 10:35:07;;;;;;;14.17;6.63;;;22.40;78.40;;;;;;10421196;28;20807;-69
2023/06/17 10:40:27;;;;;;;9.60;6.53;;;22.50;79.30;;;;;;10435802;28;20030;-69
2023/06/17 10:45:32;;;;;;;11.27;7.32;;;22.60;80.00;;;;;;10430787;28;20326;-70
2023/06/17 10:50:35;;;;;;;9.88;6.65;;;22.70;78.50;;;;;;10434058;28;20040;-70
2023/06/17 10:55:36;;;;;;;10.10;6.22;;;22.70;78.70;;;;;;10434986;28;20021;-69
2023/06/17 11:00:36;;;;;;;8.38;6.07;;;22.90;78.20;;;;;;10430620;28;20392;-70
2023/06/17 11:05:37;;;;;;;9.38;6.70;;;23.00;77.20;;;;;;10442509;28;20030;-69
2023/06/17 11:10:37;;;;;;;9.63;6.18;;;23.10;76.60;;;;;;10440200;28;20112;-69
2023/06/17 11:15:38;;;;;;;10.65;6.03;;;23.10;76.70;;;;;;10439800;28;20484;-68
2023/06/17 11:20:39;;;;;;;9.18;6.25;;;23.30;76.80;;;;;;10451066;28;20728;-69
2023/06/17 11:25:40;;;;;;;7.72;6.10;;;23.30;76.30;;;;;;10436342;28;20056;-68
2023/06/17 11:30:41;;;;;;;8.55;5.40;;;23.50;76.00;;;;;;10442130;28;20028;-69
2023/06/17 11:35:42;;;;;;;11.77;5.88;;;23.60;75.20;;;;;;10442238;28;20398;-70
2023/06/17 11:40:43;;;;;;;8.88;5.45;;;23.70;74.60;;;;;;10450272;28;20029;-70
2023/06/17 11:45:44;;;;;;;11.25;5.93;;;23.80;74.10;;;;;;10450168;28;20035;-69
2023/06/17 11:50:44;;;;;;;9.82;5.80;;;23.80;74.30;;;;;;10448368;28;20189;-69
2023/06/17 11:55:45;;;;;;;7.22;5.45;;;23.80;73.30;;;;;;10445664;28;20045;-69
2023/06/17 12:00:46;;;;;;;8.30;5.65;;;23.90;72.80;;;;;;10442970;28;20021;-69
2023/06/17 12:05:47;;;;;;;8.55;5.30;;;24.00;72.80;;;;;;10449081;28;20039;-69
2023/06/17 12:10:47;;;;;;;9.20;5.47;;;24.20;73.20;;;;;;10444067;28;20024;-69
2023/06/17 12:15:48;;;;;;;8.18;5.70;;;24.40;73.20;;;;;;10444191;28;20032;-72
2023/06/17 12:20:50;;;;;;;8.85;5.30;;;24.50;72.70;;;;;;10440850;28;20028;-69
2023/06/17 12:25:50;;;;;;;7.43;5.40;;;24.60;72.40;;;;;;10451460;28;20033;-69
2023/06/17 12:30:51;;;;;;;10.65;5.20;;;24.60;72.90;;;;;;10444721;28;20416;-70
2023/06/17 12:35:52;;;;;;;9.25;5.40;;;24.60;72.80;;;;;;10440874;28;20082;-69
2023/06/17 12:40:52;;;;;;;8.73;5.35;;;24.60;73.20;;;;;;10441594;28;20082;-69
2023/06/17 12:45:54;;;;;;;8.73;5.70;;;24.90;73.30;;;;;;10451746;28;20024;-69
2023/06/17 12:50:55;;;;;;;9.27;5.63;;;25.00;73.00;;;;;;10436036;28;20039;-68
2023/06/17 12:55:56;;;;;;;9.82;5.88;;;25.10;71.80;;;;;;10445664;28;20036;-70
2023/06/17 13:00:56;;;;;;;8.57;5.90;;;25.10;71.60;;;;;;10431742;28;20079;-69
2023/06/17 13:05:57;;;;;;;8.82;5.72;;;25.20;71.90;;;;;;10450221;28;20463;-68
2023/06/17 13:10:58;;;;;;;6.30;4.88;;;25.40;72.40;;;;;;10455298;28;20028;-69
2023/06/17 13:15:59;;;;;;;8.55;4.97;;;25.60;71.80;;;;;;10444565;28;20468;-69
2023/06/17 13:20:59;;;;;;;8.93;6.22;;;25.70;71.20;;;;;;10433190;28;20033;-69
2023/06/17 13:26:04;;;;;;;7.00;5.00;;;25.80;70.60;;;;;;10453069;28;20040;-69
2023/06/17 13:31:04;;;;;;;7.68;5.43;;;26.00;70.90;;;;;;10428988;28;20025;-69
2023/06/17 13:36:05;;;;;;;11.90;5.30;;;26.00;70.20;;;;;;10438935;28;20068;-71
2023/06/17 13:41:06;;;;;;;7.32;4.75;;;26.20;69.80;;;;;;10449513;28;20048;-70
2023/06/17 13:46:07;;;;;;;6.03;5.15;;;26.40;69.40;;;;;;10446112;28;20025;-70
2023/06/17 13:51:07;;;;;;;7.75;4.88;;;26.50;69.30;;;;;;10437883;28;20025;-69
2023/06/17 13:56:08;;;;;;;6.10;5.38;;;26.70;69.00;;;;;;10443111;28;20024;-70
2023/06/17 14:01:09;;;;;;;10.50;5.00;;;26.90;68.80;;;;;;10435648;28;20024;-70
2023/06/17 14:06:10;;;;;;;8.60;5.07;;;27.00;68.50;;;;;;10446664;28;20017;-70
2023/06/17 14:11:11;;;;;;;6.93;4.63;;;26.90;67.20;;;;;;10452198;28;20055;-69
2023/06/17 14:16:12;;;;;;;5.82;4.43;;;26.90;66.80;;;;;;10453006;28;20032;-70
2023/06/17 14:21:33;;;;;;;5.13;4.60;;;26.90;66.10;;;;;;10454139;28;20021;-70
2023/06/17 14:26:35;;;;;;;5.72;4.70;;;27.00;66.00;;;;;;10439730;28;20024;-70
2023/06/17 14:31:37;;;;;;;10.75;4.75;;;27.10;66.10;;;;;;10441898;28;20026;-69
2023/06/17 14:36:37;;;;;;;7.28;5.10;;;27.20;65.60;;;;;;10451477;28;20489;-70
2023/06/17 14:41:38;;;;;;;6.50;4.50;;;27.20;65.30;;;;;;10450152;28;20075;-69
2023/06/17 14:46:38;;;;;;;7.40;4.68;;;27.20;65.80;;;;;;10461410;28;20040;-69
2023/06/17 14:51:39;;;;;;;7.20;5.00;;;27.30;65.40;;;;;;10456458;28;20041;-69
2023/06/17 14:56:39;;;;;;;8.23;5.20;;;27.40;65.00;;;;;;10454272;28;20497;-69
2023/06/17 15:01:40;;;;;;;5.72;4.20;;;27.30;64.80;;;;;;10448338;28;20028;-69
2023/06/17 15:06:41;;;;;;;6.75;4.95;;;27.20;65.10;;;;;;10456212;28;20021;-69
2023/06/17 15:11:42;;;;;;;8.48;5.50;;;27.20;65.20;;;;;;10449227;28;20052;-69
2023/06/17 15:16:42;;;;;;;9.40;4.85;;;27.20;65.20;;;;;;10453937;28;20404;-69
2023/06/17 15:21:43;;;;;;;9.23;5.47;;;27.20;65.10;;;;;;10462355;28;20035;-69
2023/06/17 15:26:45;;;;;;;5.43;4.60;;;27.20;65.30;;;;;;10447712;28;20033;-69
2023/06/17 15:31:45;;;;;;;8.07;4.65;;;27.20;65.30;;;;;;10438804;28;20048;-69
2023/06/17 15:36:46;;;;;;;5.80;5.20;;;27.30;65.40;;;;;;10446533;28;20402;-69
2023/06/17 15:41:47;;;;;;;8.07;5.43;;;27.40;65.60;;;;;;10444041;28;20025;-69
2023/06/17 15:46:49;;;;;;;6.80;5.30;;;27.40;65.40;;;;;;10444701;28;20026;-69
2023/06/17 15:51:49;;;;;;;6.00;5.05;;;27.30;65.40;;;;;;10445848;28;20056;-69
2023/06/17 15:56:50;;;;;;;8.02;5.53;;;27.20;65.20;;;;;;10446776;28;20478;-71
2023/06/17 16:01:50;;;;;;;9.90;5.40;;;27.00;65.30;;;;;;10446968;28;20044;-68
2023/06/17 16:06:51;;;;;;;8.38;5.25;;;26.80;65.70;;;;;;10446383;28;20075;-69
2023/06/17 16:11:52;;;;;;;7.20;4.80;;;26.80;65.70;;;;;;10442436;28;20027;-69
2023/06/17 16:16:52;;;;;;;7.70;5.43;;;26.60;65.80;;;;;;10439177;28;20078;-70
2023/06/17 16:21:54;;;;;;;9.70;7.00;;;26.60;66.00;;;;;;10448962;28;20627;-70
2023/06/17 16:26:54;;;;;;;38.85;34.35;;;26.50;65.60;;;;;;10441830;28;20040;-70
2023/06/17 16:31:55;;;;;;;68.70;37.80;;;26.40;65.80;;;;;;10446658;28;20026;-70
2023/06/17 16:36:55;;;;;;;41.65;27.35;;;26.30;65.60;;;;;;10448897;28;20083;-70
2023/06/17 16:41:56;;;;;;;14.15;11.25;;;26.30;65.50;;;;;;10446606;28;20035;-70
2023/06/17 16:46:57;;;;;;;10.80;8.70;;;26.20;65.20;;;;;;10451219;28;20028;-70
2023/06/17 16:51:57;;;;;;;10.02;8.13;;;26.20;65.10;;;;;;10445012;28;20024;-70
2023/06/17 16:56:58;;;;;;;10.85;5.68;;;26.10;65.10;;;;;;10452716;28;20599;-72
2023/06/17 17:01:59;;;;;;;8.50;6.38;;;26.10;65.10;;;;;;10441226;28;20044;-70
2023/06/17 17:07:02;;;;;;;7.72;5.75;;;26.00;65.00;;;;;;10455649;28;20044;-69
2023/06/17 17:12:03;;;;;;;62.70;48.05;;;26.00;65.20;;;;;;10444570;28;20044;-69
2023/06/17 17:17:04;;;;;;;13.60;9.23;;;26.00;65.20;;;;;;10446338;28;20036;-70
2023/06/17 17:22:05;;;;;;;9.85;6.07;;;26.00;65.10;;;;;;10439346;28;20048;-69
2023/06/17 17:27:06;;;;;;;9.15;5.85;;;25.90;64.80;;;;;;10444791;28;20033;-71
2023/06/17 17:32:07;;;;;;;8.35;6.07;;;25.80;64.70;;;;;;10450346;28;20028;-69
2023/06/17 17:37:09;;;;;;;13.25;7.75;;;25.80;64.80;;;;;;10442671;28;20036;-69
2023/06/17 17:42:09;;;;;;;12.60;9.43;;;25.70;64.80;;;;;;10432862;28;20262;-68
2023/06/17 17:47:10;;;;;;;10.75;8.50;;;25.70;65.20;;;;;;10447356;28;20029;-69
2023/06/17 17:52:10;;;;;;;9.55;6.80;;;25.60;65.60;;;;;;10431978;28;20516;-69
2023/06/17 17:57:12;;;;;;;10.43;6.43;;;25.60;65.70;;;;;;10436077;28;20374;-69
2023/06/17 18:02:13;;;;;;;8.88;5.75;;;25.50;65.70;;;;;;10444027;28;20474;-69
2023/06/17 18:07:13;;;;;;;8.30;5.75;;;25.50;65.90;;;;;;10437947;28;20025;-69
2023/06/17 18:12:14;;;;;;;12.80;7.40;;;25.40;66.00;;;;;;10448569;28;20119;-69
2023/06/17 18:17:15;;;;;;;11.43;7.00;;;25.20;68.10;;;;;;10465616;28;20104;-69
2023/06/17 18:22:15;;;;;;;15.52;8.00;;;25.10;69.30;;;;;;10458356;28;20025;-68
2023/06/17 18:27:16;;;;;;;13.95;8.23;;;25.00;70.40;;;;;;10453776;28;20071;-68
2023/06/17 18:32:17;;;;;;;13.77;7.45;;;24.90;71.30;;;;;;10446154;28;20070;-69
2023/06/17 18:37:17;;;;;;;14.52;8.02;;;24.80;72.00;;;;;;10451751;28;20016;-69
2023/06/17 18:42:18;;;;;;;14.23;7.65;;;24.70;72.50;;;;;;10461043;28;20075;-69
2023/06/17 18:47:18;;;;;;;12.98;7.97;;;24.60;72.80;;;;;;10455305;28;20032;-69
2023/06/17 18:52:19;;;;;;;15.65;8.13;;;24.50;73.30;;;;;;10460806;28;20710;-71
2023/06/17 18:57:20;;;;;;;14.15;7.65;;;24.40;73.90;;;;;;10462740;28;20809;-70
2023/06/17 19:02:21;;;;;;;11.15;7.57;;;24.30;74.20;;;;;;10461406;28;20557;-70
2023/06/17 19:07:21;;;;;;;13.88;8.30;;;24.20;74.30;;;;;;10453688;28;20262;-68
2023/06/17 19:12:22;;;;;;;13.30;8.10;;;24.10;74.40;;;;;;10456300;28;20557;-69
2023/06/17 19:17:23;;;;;;;14.77;8.73;;;24.10;74.50;;;;;;10462209;28;20488;-68
2023/06/17 19:22:25;;;;;;;14.18;8.23;;;24.00;74.60;;;;;;10455477;28;20031;-68
2023/06/17 19:27:26;;;;;;;13.15;8.35;;;23.90;75.00;;;;;;10456102;28;20036;-69
2023/06/17 19:32:27;;;;;;;14.48;7.95;;;23.80;75.20;;;;;;10461817;28;20036;-69
2023/06/17 19:37:29;;;;;;;11.38;6.93;;;23.80;75.60;;;;;;10463056;28;20020;-69
2023/06/17 19:42:30;;;;;;;14.52;7.45;;;23.60;75.80;;;;;;10457648;28;20088;-70
2023/06/17 19:47:30;;;;;;;15.73;7.47;;;23.40;76.10;;;;;;10463761;28;20107;-69
2023/06/17 19:52:31;;;;;;;12.40;7.30;;;23.30;76.50;;;;;;10447580;28;20060;-69
2023/06/17 19:57:31;;;;;;;11.20;7.53;;;23.10;76.70;;;;;;10451440;28;20112;-68
2023/06/17 20:02:32;;;;;;;11.55;7.18;;;23.00;77.00;;;;;;10445898;28;20465;-68
2023/06/17 20:07:32;;;;;;;240.43;39.35;;;22.80;77.20;;;;;;10446820;28;20492;-67
2023/06/17 20:12:33;;;;;;;235.77;41.72;;;22.90;77.30;;;;;;10462355;28;20411;-65
2023/06/17 20:17:34;;;;;;;196.75;37.65;;;23.10;76.70;;;;;;10449726;28;20132;-66
2023/06/17 20:22:34;;;;;;;188.98;35.95;;;23.30;76.10;;;;;;10445491;28;20025;-64
2023/06/17 20:27:35;;;;;;;182.23;36.10;;;23.50;75.60;;;;;;10432966;28;20132;-64
2023/06/17 20:32:35;;;;;;;160.13;32.28;;;23.70;75.20;;;;;;10440439;28;20090;-65
2023/06/17 20:37:36;;;;;;;142.73;30.15;;;23.80;74.90;;;;;;10443006;28;20040;-67
2023/06/17 20:42:37;;;;;;;144.70;30.52;;;23.80;74.60;;;;;;10439109;28;20036;-66
2023/06/17 20:47:37;;;;;;;142.35;30.17;;;23.90;74.60;;;;;;10430561;28;20030;-67
2023/06/17 20:52:38;;;;;;;123.60;27.42;;;23.90;74.20;;;;;;10433794;28;20071;-66
2023/06/17 20:57:39;;;;;;;117.57;22.40;;;24.00;74.10;;;;;;10428941;28;20026;-66
2023/06/17 21:02:40;;;;;;;106.70;23.92;;;24.00;74.00;;;;;;10429341;28;20116;-66
2023/06/17 21:07:41;;;;;;;94.65;22.58;;;24.00;73.90;;;;;;10430358;28;20041;-66
2023/06/17 21:12:42;;;;;;;94.85;21.00;;;24.00;73.80;;;;;;10436407;28;21630;-66
2023/06/17 21:17:43;;;;;;;93.47;20.13;;;24.00;73.70;;;;;;10432573;28;20036;-66
2023/06/17 21:22:43;;;;;;;78.57;19.33;;;24.00;73.70;;;;;;10422994;28;20028;-65
2023/06/17 21:27:45;;;;;;;74.90;18.17;;;24.00;73.70;;;;;;10433557;28;20041;-67
2023/06/17 21:32:45;;;;;;;71.25;17.65;;;23.90;73.60;;;;;;10445098;28;20052;-67
2023/06/17 21:37:46;;;;;;;69.80;17.50;;;23.90;73.60;;;;;;10443322;28;20559;-66
2023/06/17 21:42:46;;;;;;;55.78;16.23;;;23.80;74.20;;;;;;10430099;28;20427;-65
2023/06/17 21:47:47;;;;;;;61.58;15.63;;;23.80;73.50;;;;;;10429370;28;20033;-66
2023/06/17 21:52:48;;;;;;;50.05;13.48;;;23.80;74.10;;;;;;10421051;28;20037;-67
2023/06/17 21:57:48;;;;;;;53.03;16.27;;;23.80;73.50;;;;;;10430016;28;20335;-66
2023/06/17 22:02:49;;;;;;;52.10;14.52;;;23.80;73.50;;;;;;10435142;28;20024;-65
2023/06/17 22:07:50;;;;;;;42.85;13.40;;;23.70;73.70;;;;;;10436651;28;20117;-67
2023/06/17 22:12:51;;;;;;;45.60;12.30;;;23.70;73.40;;;;;;10436811;28;20532;-66
2023/06/17 22:17:53;;;;;;;39.28;11.98;;;23.70;73.40;;;;;;10435847;28;20029;-67
2023/06/17 22:22:54;;;;;;;35.80;12.05;;;23.60;73.40;;;;;;10440824;28;20022;-67
2023/06/17 22:27:55;;;;;;;33.42;10.48;;;23.60;73.30;;;;;;10431786;28;20534;-63
2023/06/17 22:32:56;;;;;;;34.72;10.60;;;23.60;73.30;;;;;;10434070;28;20553;-65
2023/06/17 22:37:56;;;;;;;34.05;10.55;;;23.50;73.30;;;;;;10429579;28;20093;-66
2023/06/17 22:42:57;;;;;;;25.63;9.15;;;23.50;73.30;;;;;;10439333;28;20036;-67
2023/06/17 22:47:58;;;;;;;25.92;9.88;;;23.40;73.20;;;;;;10439078;28;20035;-65
2023/06/17 22:52:58;;;;;;;22.48;7.88;;;23.40;73.20;;;;;;10441808;28;20039;-66
2023/06/17 22:57:59;;;;;;;24.23;10.13;;;23.40;73.30;;;;;;10438360;28;20496;-66
2023/06/17 23:02:59;;;;;;;20.80;9.32;;;23.40;73.20;;;;;;10443110;28;20237;-66
2023/06/17 23:08:00;;;;;;;19.85;8.45;;;23.30;73.20;;;;;;10459090;28;20373;-66
2023/06/17 23:13:01;;;;;;;20.77;8.18;;;23.30;73.20;;;;;;10446289;28;20021;-66
2023/06/17 23:18:01;;;;;;;17.52;7.80;;;23.30;73.10;;;;;;10449153;28;20124;-67
2023/06/17 23:23:03;;;;;;;17.98;7.85;;;23.20;73.10;;;;;;10454497;28;20514;-66
2023/06/17 23:28:04;;;;;;;14.35;7.28;;;23.20;73.10;;;;;;10445443;28;20036;-65
2023/06/17 23:33:05;;;;;;;18.25;7.55;;;23.20;73.10;;;;;;10444527;28;20021;-64
2023/06/17 23:38:05;;;;;;;18.60;8.35;;;23.20;73.20;;;;;;10447299;28;20061;-66
2023/06/17 23:43:06;;;;;;;16.95;7.30;;;23.10;73.10;;;;;;10451657;28;20023;-67
2023/06/17 23:48:07;;;;;;;14.27;7.22;;;23.10;73.10;;;;;;10452213;28;20032;-66
2023/06/17 23:53:09;;;;;;;15.10;7.30;;;23.10;73.10;;;;;;10448120;28;20514;-64
2023/06/17 23:58:09;;;;;;;14.20;6.82;;;23.00;73.10;;;;;;10453548;28;20020;-66
